sensor_id;sensor_type;location;lat;lon;timestamp;temperature;humidity
30174;DHT22;16985;50.814;8.530;2022-07-18T00:01:47;17.00;65.50
30174;DHT22;16985;50.814;8.530;2022-07-18T00:04:12;16.90;65.80
30174;DHT22;16985;50.814;8.530;2022-07-18T00:06:38;16.90;66.00
30174;DHT22;16985;50.814;8.530;2022-07-18T00:09:04;16.80;66.10
30174;DHT22;16985;50.814;8.530;2022-07-18T00:11:30;16.80;66.20
30174;DHT22;16985;50.814;8.530;2022-07-18T00:13:56;16.80;66.10
30174;DHT22;16985;50.814;8.530;2022-07-18T00:16:23;16.80;65.90
30174;DHT22;16985;50.814;8.530;2022-07-18T00:18:49;16.70;65.70
30174;DHT22;16985;50.814;8.530;2022-07-18T00:21:16;16.70;66.80
30174;DHT22;16985;50.814;8.530;2022-07-18T00:23:41;16.60;67.10
30174;DHT22;16985;50.814;8.530;2022-07-18T00:26:07;16.50;66.90
30174;DHT22;16985;50.814;8.530;2022-07-18T00:28:33;16.40;66.80
30174;DHT22;16985;50.814;8.530;2022-07-18T00:30:59;16.40;67.20
30174;DHT22;16985;50.814;8.530;2022-07-18T00:33:25;16.40;67.00
30174;DHT22;16985;50.814;8.530;2022-07-18T00:35:51;16.30;67.40
30174;DHT22;16985;50.814;8.530;2022-07-18T00:38:16;16.20;67.60
30174;DHT22;16985;50.814;8.530;2022-07-18T00:40:43;16.20;67.80
30174;DHT22;16985;50.814;8.530;2022-07-18T00:43:12;16.20;67.90
30174;DHT22;16985;50.814;8.530;2022-07-18T00:45:39;16.10;67.70
30174;DHT22;16985;50.814;8.530;2022-07-18T00:48:09;16.20;67.60
30174;DHT22;16985;50.814;8.530;2022-07-18T00:50:35;16.10;67.40
30174;DHT22;16985;50.814;8.530;2022-07-18T00:53:01;16.10;67.60
30174;DHT22;16985;50.814;8.530;2022-07-18T00:55:27;16.10;67.60
30174;DHT22;16985;50.814;8.530;2022-07-18T00:57:53;16.10;67.70
30174;DHT22;16985;50.814;8.530;2022-07-18T01:00:21;16.10;67.70
30174;DHT22;16985;50.814;8.530;2022-07-18T01:03:05;16.00;67.60
30174;DHT22;16985;50.814;8.530;2022-07-18T01:05:31;15.90;68.40
30174;DHT22;16985;50.814;8.530;2022-07-18T01:07:57;15.80;69.10
30174;DHT22;16985;50.814;8.530;2022-07-18T01:10:22;15.70;69.30
30174;DHT22;16985;50.814;8.530;2022-07-18T01:12:48;15.70;69.50
30174;DHT22;16985;50.814;8.530;2022-07-18T01:15:14;15.60;69.60
30174;DHT22;16985;50.814;8.530;2022-07-18T01:17:40;15.60;69.60
30174;DHT22;16985;50.814;8.530;2022-07-18T01:20:06;15.60;69.70
30174;DHT22;16985;50.814;8.530;2022-07-18T01:22:33;15.50;69.70
30174;DHT22;16985;50.814;8.530;2022-07-18T01:24:59;15.50;69.80
30174;DHT22;16985;50.814;8.530;2022-07-18T01:27:25;15.50;69.70
30174;DHT22;16985;50.814;8.530;2022-07-18T01:29:52;15.40;69.70
30174;DHT22;16985;50.814;8.530;2022-07-18T01:32:19;15.40;69.70
30174;DHT22;16985;50.814;8.530;2022-07-18T01:34:46;15.30;70.10
30174;DHT22;16985;50.814;8.530;2022-07-18T01:37:13;15.30;70.50
30174;DHT22;16985;50.814;8.530;2022-07-18T01:39:41;15.20;70.70
30174;DHT22;16985;50.814;8.530;2022-07-18T01:42:09;15.20;70.60
30174;DHT22;16985;50.814;8.530;2022-07-18T01:44:36;15.20;70.90
30174;DHT22;16985;50.814;8.530;2022-07-18T01:47:04;15.20;70.70
30174;DHT22;16985;50.814;8.530;2022-07-18T01:49:32;15.00;70.90
30174;DHT22;16985;50.814;8.530;2022-07-18T01:51:58;15.00;71.70
30174;DHT22;16985;50.814;8.530;2022-07-18T01:54:27;15.00;71.40
30174;DHT22;16985;50.814;8.530;2022-07-18T01:56:55;15.00;71.30
30174;DHT22;16985;50.814;8.530;2022-07-18T01:59:22;14.90;71.10
30174;DHT22;16985;50.814;8.530;2022-07-18T02:01:48;14.90;71.20
30174;DHT22;16985;50.814;8.530;2022-07-18T02:04:14;14.90;71.10
30174;DHT22;16985;50.814;8.530;2022-07-18T02:06:40;14.90;71.40
30174;DHT22;16985;50.814;8.530;2022-07-18T02:09:06;14.80;71.70
30174;DHT22;16985;50.814;8.530;2022-07-18T02:11:33;14.80;71.50
30174;DHT22;16985;50.814;8.530;2022-07-18T02:13:59;14.80;71.70
30174;DHT22;16985;50.814;8.530;2022-07-18T02:16:25;14.70;72.00
30174;DHT22;16985;50.814;8.530;2022-07-18T02:18:51;14.70;72.20
30174;DHT22;16985;50.814;8.530;2022-07-18T02:21:17;14.70;72.20
30174;DHT22;16985;50.814;8.530;2022-07-18T02:23:44;14.70;72.20
30174;DHT22;16985;50.814;8.530;2022-07-18T02:26:10;14.60;72.30
30174;DHT22;16985;50.814;8.530;2022-07-18T02:28:37;14.60;72.40
30174;DHT22;16985;50.814;8.530;2022-07-18T02:31:04;14.50;72.70
30174;DHT22;16985;50.814;8.530;2022-07-18T02:33:32;14.50;72.90
30174;DHT22;16985;50.814;8.530;2022-07-18T02:35:58;14.40;73.00
30174;DHT22;16985;50.814;8.530;2022-07-18T02:38:24;14.40;73.20
30174;DHT22;16985;50.814;8.530;2022-07-18T02:40:50;14.40;73.30
30174;DHT22;16985;50.814;8.530;2022-07-18T02:43:16;14.30;73.00
30174;DHT22;16985;50.814;8.530;2022-07-18T02:45:41;14.40;73.10
30174;DHT22;16985;50.814;8.530;2022-07-18T02:48:07;14.30;73.10
30174;DHT22;16985;50.814;8.530;2022-07-18T02:50:34;14.30;73.30
30174;DHT22;16985;50.814;8.530;2022-07-18T02:53:00;14.30;73.30
30174;DHT22;16985;50.814;8.530;2022-07-18T02:55:25;14.20;73.40
30174;DHT22;16985;50.814;8.530;2022-07-18T02:57:51;14.20;73.60
30174;DHT22;16985;50.814;8.530;2022-07-18T03:00:17;14.10;73.90
30174;DHT22;16985;50.814;8.530;2022-07-18T03:02:44;14.10;74.00
30174;DHT22;16985;50.814;8.530;2022-07-18T03:05:11;14.10;74.00
30174;DHT22;16985;50.814;8.530;2022-07-18T03:07:38;14.10;74.20
30174;DHT22;16985;50.814;8.530;2022-07-18T03:10:05;14.00;74.00
30174;DHT22;16985;50.814;8.530;2022-07-18T03:12:31;14.00;74.50
30174;DHT22;16985;50.814;8.530;2022-07-18T03:14:57;13.90;74.40
30174;DHT22;16985;50.814;8.530;2022-07-18T03:17:23;14.00;74.70
30174;DHT22;16985;50.814;8.530;2022-07-18T03:19:49;13.90;74.70
30174;DHT22;16985;50.814;8.530;2022-07-18T03:22:14;13.80;75.00
30174;DHT22;16985;50.814;8.530;2022-07-18T03:24:40;13.80;75.10
30174;DHT22;16985;50.814;8.530;2022-07-18T03:27:06;13.70;75.40
30174;DHT22;16985;50.814;8.530;2022-07-18T03:29:32;13.80;75.20
30174;DHT22;16985;50.814;8.530;2022-07-18T03:31:58;13.70;75.30
30174;DHT22;16985;50.814;8.530;2022-07-18T03:34:23;13.70;75.40
30174;DHT22;16985;50.814;8.530;2022-07-18T03:36:53;13.70;75.80
30174;DHT22;16985;50.814;8.530;2022-07-18T03:39:19;13.60;75.60
30174;DHT22;16985;50.814;8.530;2022-07-18T03:41:45;13.70;75.70
30174;DHT22;16985;50.814;8.530;2022-07-18T03:44:10;13.60;75.70
30174;DHT22;16985;50.814;8.530;2022-07-18T03:46:36;13.60;76.00
30174;DHT22;16985;50.814;8.530;2022-07-18T03:49:02;13.60;76.10
30174;DHT22;16985;50.814;8.530;2022-07-18T03:51:28;13.60;76.00
30174;DHT22;16985;50.814;8.530;2022-07-18T03:53:54;13.60;76.10
30174;DHT22;16985;50.814;8.530;2022-07-18T03:56:20;13.50;76.10
30174;DHT22;16985;50.814;8.530;2022-07-18T03:58:46;13.50;76.30
30174;DHT22;16985;50.814;8.530;2022-07-18T04:01:11;13.50;76.50
30174;DHT22;16985;50.814;8.530;2022-07-18T04:03:37;13.50;77.10
30174;DHT22;16985;50.814;8.530;2022-07-18T04:06:03;13.40;77.00
30174;DHT22;16985;50.814;8.530;2022-07-18T04:08:29;13.40;77.30
30174;DHT22;16985;50.814;8.530;2022-07-18T04:10:55;13.30;77.20
30174;DHT22;16985;50.814;8.530;2022-07-18T04:13:21;13.40;77.40
30174;DHT22;16985;50.814;8.530;2022-07-18T04:15:47;13.30;77.50
30174;DHT22;16985;50.814;8.530;2022-07-18T04:18:13;13.30;77.60
30174;DHT22;16985;50.814;8.530;2022-07-18T04:20:38;13.30;77.90
30174;DHT22;16985;50.814;8.530;2022-07-18T04:23:07;13.30;77.90
30174;DHT22;16985;50.814;8.530;2022-07-18T04:25:53;13.30;78.20
30174;DHT22;16985;50.814;8.530;2022-07-18T04:28:19;13.30;78.00
30174;DHT22;16985;50.814;8.530;2022-07-18T04:30:44;13.30;78.20
30174;DHT22;16985;50.814;8.530;2022-07-18T04:33:11;13.30;78.40
30174;DHT22;16985;50.814;8.530;2022-07-18T04:35:37;13.30;78.60
30174;DHT22;16985;50.814;8.530;2022-07-18T04:38:06;13.30;78.80
30174;DHT22;16985;50.814;8.530;2022-07-18T04:40:33;13.30;78.70
30174;DHT22;16985;50.814;8.530;2022-07-18T04:42:59;13.30;78.80
30174;DHT22;16985;50.814;8.530;2022-07-18T04:45:25;13.30;78.80
30174;DHT22;16985;50.814;8.530;2022-07-18T04:47:52;13.30;79.00
30174;DHT22;16985;50.814;8.530;2022-07-18T04:50:19;13.30;79.20
30174;DHT22;16985;50.814;8.530;2022-07-18T04:52:46;13.30;79.40
30174;DHT22;16985;50.814;8.530;2022-07-18T04:55:13;13.30;79.50
30174;DHT22;16985;50.814;8.530;2022-07-18T04:57:40;13.30;79.40
30174;DHT22;16985;50.814;8.530;2022-07-18T05:00:12;13.40;79.70
30174;DHT22;16985;50.814;8.530;2022-07-18T05:02:40;13.40;79.90
30174;DHT22;16985;50.814;8.530;2022-07-18T05:05:08;13.40;79.80
30174;DHT22;16985;50.814;8.530;2022-07-18T05:07:35;13.50;79.80
30174;DHT22;16985;50.814;8.530;2022-07-18T05:10:01;13.50;80.60
30174;DHT22;16985;50.814;8.530;2022-07-18T05:12:29;13.50;80.10
30174;DHT22;16985;50.814;8.530;2022-07-18T05:14:55;13.50;80.60
30174;DHT22;16985;50.814;8.530;2022-07-18T05:17:21;13.50;80.70
30174;DHT22;16985;50.814;8.530;2022-07-18T05:19:47;13.60;80.80
30174;DHT22;16985;50.814;8.530;2022-07-18T05:22:12;13.50;80.70
30174;DHT22;16985;50.814;8.530;2022-07-18T05:24:38;13.60;80.90
30174;DHT22;16985;50.814;8.530;2022-07-18T05:27:04;13.60;81.00
30174;DHT22;16985;50.814;8.530;2022-07-18T05:29:30;13.60;81.00
30174;DHT22;16985;50.814;8.530;2022-07-18T05:31:56;13.70;81.20
30174;DHT22;16985;50.814;8.530;2022-07-18T05:34:22;13.80;81.40
30174;DHT22;16985;50.814;8.530;2022-07-18T05:36:47;13.80;81.00
30174;DHT22;16985;50.814;8.530;2022-07-18T05:39:13;13.80;81.00
30174;DHT22;16985;50.814;8.530;2022-07-18T05:41:39;13.80;81.00
30174;DHT22;16985;50.814;8.530;2022-07-18T05:44:05;13.80;81.10
30174;DHT22;16985;50.814;8.530;2022-07-18T05:46:30;13.90;81.00
30174;DHT22;16985;50.814;8.530;2022-07-18T05:48:56;13.90;81.30
30174;DHT22;16985;50.814;8.530;2022-07-18T05:51:22;13.90;81.40
30174;DHT22;16985;50.814;8.530;2022-07-18T05:53:48;14.00;82.20
30174;DHT22;16985;50.814;8.530;2022-07-18T05:56:14;14.00;82.50
30174;DHT22;16985;50.814;8.530;2022-07-18T05:58:41;14.00;82.60
30174;DHT22;16985;50.814;8.530;2022-07-18T06:01:07;14.10;82.30
30174;DHT22;16985;50.814;8.530;2022-07-18T06:03:32;14.20;82.70
30174;DHT22;16985;50.814;8.530;2022-07-18T06:05:58;14.20;82.90
30174;DHT22;16985;50.814;8.530;2022-07-18T06:08:24;14.30;82.80
30174;DHT22;16985;50.814;8.530;2022-07-18T06:10:50;14.30;82.30
30174;DHT22;16985;50.814;8.530;2022-07-18T06:13:16;14.40;82.60
30174;DHT22;16985;50.814;8.530;2022-07-18T06:15:42;14.50;82.80
30174;DHT22;16985;50.814;8.530;2022-07-18T06:18:07;14.50;83.00
30174;DHT22;16985;50.814;8.530;2022-07-18T06:20:33;14.60;82.90
30174;DHT22;16985;50.814;8.530;2022-07-18T06:23:02;14.60;82.60
30174;DHT22;16985;50.814;8.530;2022-07-18T06:25:30;14.70;82.80
30174;DHT22;16985;50.814;8.530;2022-07-18T06:27:56;14.80;82.90
30174;DHT22;16985;50.814;8.530;2022-07-18T06:30:22;14.80;82.80
30174;DHT22;16985;50.814;8.530;2022-07-18T06:32:48;14.90;82.50
30174;DHT22;16985;50.814;8.530;2022-07-18T06:35:14;15.00;82.40
30174;DHT22;16985;50.814;8.530;2022-07-18T06:37:40;15.10;82.60
30174;DHT22;16985;50.814;8.530;2022-07-18T06:40:06;15.20;82.70
30174;DHT22;16985;50.814;8.530;2022-07-18T06:42:33;15.20;82.50
30174;DHT22;16985;50.814;8.530;2022-07-18T06:44:59;15.40;82.60
30174;DHT22;16985;50.814;8.530;2022-07-18T06:47:24;15.40;82.60
30174;DHT22;16985;50.814;8.530;2022-07-18T06:49:50;15.50;82.80
30174;DHT22;16985;50.814;8.530;2022-07-18T06:52:16;15.70;82.70
30174;DHT22;16985;50.814;8.530;2022-07-18T06:54:48;15.80;82.60
30174;DHT22;16985;50.814;8.530;2022-07-18T06:57:27;15.90;82.30
30174;DHT22;16985;50.814;8.530;2022-07-18T06:59:53;16.00;82.10
30174;DHT22;16985;50.814;8.530;2022-07-18T07:02:20;16.10;81.20
30174;DHT22;16985;50.814;8.530;2022-07-18T07:04:46;16.20;80.60
30174;DHT22;16985;50.814;8.530;2022-07-18T07:07:11;16.30;79.90
30174;DHT22;16985;50.814;8.530;2022-07-18T07:09:37;16.50;79.50
30174;DHT22;16985;50.814;8.530;2022-07-18T07:12:04;16.60;79.40
30174;DHT22;16985;50.814;8.530;2022-07-18T07:14:30;16.70;78.90
30174;DHT22;16985;50.814;8.530;2022-07-18T07:16:56;16.80;78.20
30174;DHT22;16985;50.814;8.530;2022-07-18T07:19:22;17.00;77.70
30174;DHT22;16985;50.814;8.530;2022-07-18T07:21:48;17.10;77.50
30174;DHT22;16985;50.814;8.530;2022-07-18T07:24:13;17.30;76.90
30174;DHT22;16985;50.814;8.530;2022-07-18T07:26:39;17.40;75.80
30174;DHT22;16985;50.814;8.530;2022-07-18T07:29:05;17.60;75.60
30174;DHT22;16985;50.814;8.530;2022-07-18T07:31:31;17.70;74.30
30174;DHT22;16985;50.814;8.530;2022-07-18T07:33:58;17.80;73.60
30174;DHT22;16985;50.814;8.530;2022-07-18T07:36:24;18.00;73.30
30174;DHT22;16985;50.814;8.530;2022-07-18T07:38:50;18.10;73.20
30174;DHT22;16985;50.814;8.530;2022-07-18T07:41:16;18.10;73.00
30174;DHT22;16985;50.814;8.530;2022-07-18T07:43:42;18.30;72.20
30174;DHT22;16985;50.814;8.530;2022-07-18T07:46:08;18.50;71.60
30174;DHT22;16985;50.814;8.530;2022-07-18T07:48:36;18.70;71.40
30174;DHT22;16985;50.814;8.530;2022-07-18T07:51:01;18.80;71.20
30174;DHT22;16985;50.814;8.530;2022-07-18T07:53:29;18.90;70.50
30174;DHT22;16985;50.814;8.530;2022-07-18T07:55:55;19.10;70.10
30174;DHT22;16985;50.814;8.530;2022-07-18T07:58:20;19.30;70.50
30174;DHT22;16985;50.814;8.530;2022-07-18T08:00:46;19.40;69.80
30174;DHT22;16985;50.814;8.530;2022-07-18T08:03:12;19.50;69.30
30174;DHT22;16985;50.814;8.530;2022-07-18T08:05:48;19.70;68.30
30174;DHT22;16985;50.814;8.530;2022-07-18T08:08:15;19.90;67.70
30174;DHT22;16985;50.814;8.530;2022-07-18T08:10:42;20.10;67.00
30174;DHT22;16985;50.814;8.530;2022-07-18T08:13:08;20.20;65.90
30174;DHT22;16985;50.814;8.530;2022-07-18T08:15:34;20.40;64.60
30174;DHT22;16985;50.814;8.530;2022-07-18T08:18:01;20.50;63.70
30174;DHT22;16985;50.814;8.530;2022-07-18T08:20:27;20.80;63.20
30174;DHT22;16985;50.814;8.530;2022-07-18T08:25:31;21.10;61.50
30174;DHT22;16985;50.814;8.530;2022-07-18T08:27:58;21.30;60.00
30174;DHT22;16985;50.814;8.530;2022-07-18T08:30:24;21.50;58.70
30174;DHT22;16985;50.814;8.530;2022-07-18T08:32:50;21.70;58.10
30174;DHT22;16985;50.814;8.530;2022-07-18T08:35:17;21.90;56.60
30174;DHT22;16985;50.814;8.530;2022-07-18T08:37:43;22.10;55.70
30174;DHT22;16985;50.814;8.530;2022-07-18T08:40:09;22.30;54.00
30174;DHT22;16985;50.814;8.530;2022-07-18T08:42:35;22.50;53.80
30174;DHT22;16985;50.814;8.530;2022-07-18T08:45:03;22.70;53.60
30174;DHT22;16985;50.814;8.530;2022-07-18T08:47:30;22.80;53.70
30174;DHT22;16985;50.814;8.530;2022-07-18T08:49:57;23.00;53.10
30174;DHT22;16985;50.814;8.530;2022-07-18T08:52:24;23.20;53.10
30174;DHT22;16985;50.814;8.530;2022-07-18T08:54:50;23.40;52.80
30174;DHT22;16985;50.814;8.530;2022-07-18T08:57:19;23.50;52.00
30174;DHT22;16985;50.814;8.530;2022-07-18T08:59:45;23.70;50.90
30174;DHT22;16985;50.814;8.530;2022-07-18T09:02:11;23.90;50.90
30174;DHT22;16985;50.814;8.530;2022-07-18T09:04:42;23.90;50.80
30174;DHT22;16985;50.814;8.530;2022-07-18T09:07:09;24.10;50.10
30174;DHT22;16985;50.814;8.530;2022-07-18T09:09:37;24.30;49.90
30174;DHT22;16985;50.814;8.530;2022-07-18T09:12:09;24.40;49.30
30174;DHT22;16985;50.814;8.530;2022-07-18T09:14:41;24.50;48.90
30174;DHT22;16985;50.814;8.530;2022-07-18T09:17:23;24.80;48.40
30174;DHT22;16985;50.814;8.530;2022-07-18T09:20:12;24.90;47.80
30174;DHT22;16985;50.814;8.530;2022-07-18T09:22:44;25.10;47.80
30174;DHT22;16985;50.814;8.530;2022-07-18T09:25:13;25.20;47.90
30174;DHT22;16985;50.814;8.530;2022-07-18T09:27:45;25.40;47.70
30174;DHT22;16985;50.814;8.530;2022-07-18T09:38:16;26.00;46.30
30174;DHT22;16985;50.814;8.530;2022-07-18T09:40:52;26.10;45.70
30174;DHT22;16985;50.814;8.530;2022-07-18T09:43:21;26.20;46.20
30174;DHT22;16985;50.814;8.530;2022-07-18T09:45:55;26.20;46.60
30174;DHT22;16985;50.814;8.530;2022-07-18T09:48:26;26.40;46.40
30174;DHT22;16985;50.814;8.530;2022-07-18T09:50:58;26.40;45.90
30174;DHT22;16985;50.814;8.530;2022-07-18T09:53:33;26.50;45.60
30174;DHT22;16985;50.814;8.530;2022-07-18T09:56:11;26.60;45.00
30174;DHT22;16985;50.814;8.530;2022-07-18T09:58:56;26.70;45.00
30174;DHT22;16985;50.814;8.530;2022-07-18T10:01:23;26.90;45.00
30174;DHT22;16985;50.814;8.530;2022-07-18T10:03:49;26.90;43.90
30174;DHT22;16985;50.814;8.530;2022-07-18T10:06:16;27.10;44.00
30174;DHT22;16985;50.814;8.530;2022-07-18T10:08:43;27.30;43.80
30174;DHT22;16985;50.814;8.530;2022-07-18T10:11:09;27.30;43.40
30174;DHT22;16985;50.814;8.530;2022-07-18T10:13:37;27.40;43.90
30174;DHT22;16985;50.814;8.530;2022-07-18T10:16:03;27.50;43.90
30174;DHT22;16985;50.814;8.530;2022-07-18T10:18:31;27.60;43.90
30174;DHT22;16985;50.814;8.530;2022-07-18T10:23:38;27.90;43.40
30174;DHT22;16985;50.814;8.530;2022-07-18T10:26:25;27.90;43.30
30174;DHT22;16985;50.814;8.530;2022-07-18T10:36:42;28.50;41.30
30174;DHT22;16985;50.814;8.530;2022-07-18T10:39:43;28.60;41.20
30174;DHT22;16985;50.814;8.530;2022-07-18T10:42:16;28.80;42.10
30174;DHT22;16985;50.814;8.530;2022-07-18T10:44:44;28.90;41.60
30174;DHT22;16985;50.814;8.530;2022-07-18T10:47:15;29.00;41.70
30174;DHT22;16985;50.814;8.530;2022-07-18T11:00:34;29.80;39.20
30174;DHT22;16985;50.814;8.530;2022-07-18T11:03:05;30.10;38.70
30174;DHT22;16985;50.814;8.530;2022-07-18T11:16:14;30.70;37.10
30174;DHT22;16985;50.814;8.530;2022-07-18T11:21:19;31.00;37.30
30174;DHT22;16985;50.814;8.530;2022-07-18T11:23:48;31.10;37.10
30174;DHT22;16985;50.814;8.530;2022-07-18T11:26:18;31.20;35.80
30174;DHT22;16985;50.814;8.530;2022-07-18T11:28:46;31.50;36.10
30174;DHT22;16985;50.814;8.530;2022-07-18T11:31:16;31.50;36.00
30174;DHT22;16985;50.814;8.530;2022-07-18T11:33:46;31.70;35.50
30174;DHT22;16985;50.814;8.530;2022-07-18T11:36:15;31.90;34.90
30174;DHT22;16985;50.814;8.530;2022-07-18T11:38:55;32.00;34.70
30174;DHT22;16985;50.814;8.530;2022-07-18T11:41:23;32.20;34.40
30174;DHT22;16985;50.814;8.530;2022-07-18T11:43:53;32.30;34.10
30174;DHT22;16985;50.814;8.530;2022-07-18T11:46:22;32.40;34.20
30174;DHT22;16985;50.814;8.530;2022-07-18T11:49:01;32.50;34.50
30174;DHT22;16985;50.814;8.530;2022-07-18T11:51:47;32.60;35.00
30174;DHT22;16985;50.814;8.530;2022-07-18T11:54:22;32.70;35.40
30174;DHT22;16985;50.814;8.530;2022-07-18T11:56:51;32.70;35.30
30174;DHT22;16985;50.814;8.530;2022-07-18T11:59:18;32.80;34.50
30174;DHT22;16985;50.814;8.530;2022-07-18T12:01:45;33.00;34.80
30174;DHT22;16985;50.814;8.530;2022-07-18T12:04:17;33.10;34.00
30174;DHT22;16985;50.814;8.530;2022-07-18T12:06:45;33.30;33.90
30174;DHT22;16985;50.814;8.530;2022-07-18T12:09:12;33.40;34.40
30174;DHT22;16985;50.814;8.530;2022-07-18T12:11:38;33.50;33.70
30174;DHT22;16985;50.814;8.530;2022-07-18T12:16:43;33.60;34.10
30174;DHT22;16985;50.814;8.530;2022-07-18T12:19:12;33.70;34.00
30174;DHT22;16985;50.814;8.530;2022-07-18T12:21:52;33.80;33.40
30174;DHT22;16985;50.814;8.530;2022-07-18T12:24:31;34.00;33.50
30174;DHT22;16985;50.814;8.530;2022-07-18T12:30:11;34.00;34.10
30174;DHT22;16985;50.814;8.530;2022-07-18T12:35:22;34.10;34.80
30174;DHT22;16985;50.814;8.530;2022-07-18T12:40:20;34.30;34.70
30174;DHT22;16985;50.814;8.530;2022-07-18T12:42:46;34.30;33.50
30174;DHT22;16985;50.814;8.530;2022-07-18T12:45:13;34.50;32.40
30174;DHT22;16985;50.814;8.530;2022-07-18T12:47:41;34.60;32.30
30174;DHT22;16985;50.814;8.530;2022-07-18T12:50:08;34.60;33.10
30174;DHT22;16985;50.814;8.530;2022-07-18T12:52:34;34.70;33.20
30174;DHT22;16985;50.814;8.530;2022-07-18T12:55:01;34.70;33.60
30174;DHT22;16985;50.814;8.530;2022-07-18T12:57:27;34.70;33.60
30174;DHT22;16985;50.814;8.530;2022-07-18T12:59:53;34.70;33.40
30174;DHT22;16985;50.814;8.530;2022-07-18T13:02:19;34.80;32.40
30174;DHT22;16985;50.814;8.530;2022-07-18T13:04:45;34.90;31.70
30174;DHT22;16985;50.814;8.530;2022-07-18T13:07:11;35.00;31.60
30174;DHT22;16985;50.814;8.530;2022-07-18T13:09:37;35.20;31.30
30174;DHT22;16985;50.814;8.530;2022-07-18T13:12:03;35.10;31.10
30174;DHT22;16985;50.814;8.530;2022-07-18T13:14:29;35.20;30.70
30174;DHT22;16985;50.814;8.530;2022-07-18T13:16:56;35.20;30.60
30174;DHT22;16985;50.814;8.530;2022-07-18T13:19:22;35.30;30.70
30174;DHT22;16985;50.814;8.530;2022-07-18T13:21:48;35.30;30.90
30174;DHT22;16985;50.814;8.530;2022-07-18T13:24:14;35.40;30.80
30174;DHT22;16985;50.814;8.530;2022-07-18T13:26:41;35.40;31.10
30174;DHT22;16985;50.814;8.530;2022-07-18T13:29:07;35.50;31.60
30174;DHT22;16985;50.814;8.530;2022-07-18T13:31:34;35.60;30.90
30174;DHT22;16985;50.814;8.530;2022-07-18T13:34:02;35.60;31.30
30174;DHT22;16985;50.814;8.530;2022-07-18T13:36:29;35.60;31.70
30174;DHT22;16985;50.814;8.530;2022-07-18T13:38:54;35.60;31.90
30174;DHT22;16985;50.814;8.530;2022-07-18T13:41:21;35.50;31.80
30174;DHT22;16985;50.814;8.530;2022-07-18T13:43:47;35.60;31.40
30174;DHT22;16985;50.814;8.530;2022-07-18T13:46:13;35.60;31.80
30174;DHT22;16985;50.814;8.530;2022-07-18T13:48:39;35.60;32.00
30174;DHT22;16985;50.814;8.530;2022-07-18T13:51:06;35.80;31.30
30174;DHT22;16985;50.814;8.530;2022-07-18T13:53:32;35.90;31.00
30174;DHT22;16985;50.814;8.530;2022-07-18T13:55:58;35.90;30.60
30174;DHT22;16985;50.814;8.530;2022-07-18T13:58:24;36.00;30.60
30174;DHT22;16985;50.814;8.530;2022-07-18T14:00:50;36.10;30.80
30174;DHT22;16985;50.814;8.530;2022-07-18T14:03:16;36.10;30.50
30174;DHT22;16985;50.814;8.530;2022-07-18T14:05:42;36.20;31.00
30174;DHT22;16985;50.814;8.530;2022-07-18T14:08:08;36.20;30.90
30174;DHT22;16985;50.814;8.530;2022-07-18T14:10:35;36.20;30.40
30174;DHT22;16985;50.814;8.530;2022-07-18T14:13:01;36.20;30.40
30174;DHT22;16985;50.814;8.530;2022-07-18T14:15:28;36.20;30.60
30174;DHT22;16985;50.814;8.530;2022-07-18T14:17:54;36.20;30.60
30174;DHT22;16985;50.814;8.530;2022-07-18T14:20:20;36.20;30.90
30174;DHT22;16985;50.814;8.530;2022-07-18T14:22:49;36.20;30.90
30174;DHT22;16985;50.814;8.530;2022-07-18T14:25:17;36.20;31.00
30174;DHT22;16985;50.814;8.530;2022-07-18T14:27:43;36.30;30.60
30174;DHT22;16985;50.814;8.530;2022-07-18T14:30:12;36.40;30.60
30174;DHT22;16985;50.814;8.530;2022-07-18T14:32:39;36.30;30.40
30174;DHT22;16985;50.814;8.530;2022-07-18T14:35:06;36.30;30.30
30174;DHT22;16985;50.814;8.530;2022-07-18T14:37:32;36.30;30.50
30174;DHT22;16985;50.814;8.530;2022-07-18T14:39:58;36.30;30.70
30174;DHT22;16985;50.814;8.530;2022-07-18T14:42:24;36.30;31.00
30174;DHT22;16985;50.814;8.530;2022-07-18T14:44:51;36.20;31.30
30174;DHT22;16985;50.814;8.530;2022-07-18T14:47:17;36.20;31.00
30174;DHT22;16985;50.814;8.530;2022-07-18T14:49:43;36.20;30.90
30174;DHT22;16985;50.814;8.530;2022-07-18T14:52:10;36.30;30.60
30174;DHT22;16985;50.814;8.530;2022-07-18T14:54:36;36.20;30.30
30174;DHT22;16985;50.814;8.530;2022-07-18T14:57:02;36.20;30.60
30174;DHT22;16985;50.814;8.530;2022-07-18T14:59:32;36.30;30.90
30174;DHT22;16985;50.814;8.530;2022-07-18T15:01:57;36.20;31.40
30174;DHT22;16985;50.814;8.530;2022-07-18T15:04:27;36.20;31.40
30174;DHT22;16985;50.814;8.530;2022-07-18T15:06:54;36.30;31.20
30174;DHT22;16985;50.814;8.530;2022-07-18T15:09:20;36.30;30.70
30174;DHT22;16985;50.814;8.530;2022-07-18T15:11:46;36.40;30.40
30174;DHT22;16985;50.814;8.530;2022-07-18T15:14:11;36.30;30.00
30174;DHT22;16985;50.814;8.530;2022-07-18T15:16:37;36.10;30.00
30174;DHT22;16985;50.814;8.530;2022-07-18T15:19:04;36.00;30.20
30174;DHT22;16985;50.814;8.530;2022-07-18T15:21:30;35.80;30.50
30174;DHT22;16985;50.814;8.530;2022-07-18T15:23:56;35.80;30.80
30174;DHT22;16985;50.814;8.530;2022-07-18T15:26:22;35.80;30.90
30174;DHT22;16985;50.814;8.530;2022-07-18T15:28:48;35.70;30.90
30174;DHT22;16985;50.814;8.530;2022-07-18T15:31:14;35.70;30.90
30174;DHT22;16985;50.814;8.530;2022-07-18T15:33:40;35.70;31.60
30174;DHT22;16985;50.814;8.530;2022-07-18T15:36:06;35.70;31.70
30174;DHT22;16985;50.814;8.530;2022-07-18T15:38:32;35.70;31.20
30174;DHT22;16985;50.814;8.530;2022-07-18T15:40:57;35.60;31.20
30174;DHT22;16985;50.814;8.530;2022-07-18T15:43:23;35.50;31.50
30174;DHT22;16985;50.814;8.530;2022-07-18T15:45:49;35.50;31.30
30174;DHT22;16985;50.814;8.530;2022-07-18T15:48:15;35.40;31.40
30174;DHT22;16985;50.814;8.530;2022-07-18T15:50:41;35.40;31.40
30174;DHT22;16985;50.814;8.530;2022-07-18T15:53:06;35.40;31.60
30174;DHT22;16985;50.814;8.530;2022-07-18T15:55:32;35.40;32.20
30174;DHT22;16985;50.814;8.530;2022-07-18T15:57:59;35.40;32.10
30174;DHT22;16985;50.814;8.530;2022-07-18T16:00:25;35.40;32.20
30174;DHT22;16985;50.814;8.530;2022-07-18T16:06:06;35.40;32.20
30174;DHT22;16985;50.814;8.530;2022-07-18T16:08:32;35.30;32.60
30174;DHT22;16985;50.814;8.530;2022-07-18T16:10:57;35.10;32.40
30174;DHT22;16985;50.814;8.530;2022-07-18T16:13:23;35.10;33.20
30174;DHT22;16985;50.814;8.530;2022-07-18T16:15:49;35.10;33.60
30174;DHT22;16985;50.814;8.530;2022-07-18T16:18:15;34.90;33.40
30174;DHT22;16985;50.814;8.530;2022-07-18T16:20:41;34.80;33.50
30174;DHT22;16985;50.814;8.530;2022-07-18T16:23:08;34.70;33.90
30174;DHT22;16985;50.814;8.530;2022-07-18T16:25:33;34.60;34.00
30174;DHT22;16985;50.814;8.530;2022-07-18T16:28:00;34.50;34.00
30174;DHT22;16985;50.814;8.530;2022-07-18T16:30:26;34.50;33.70